Time,TemperatureF,DewpointF,PressureIn,WindDirection,WindDirectionDegrees,WindSpeedMPH,WindSpeedGustMPH,Humidity,HourlyPrecipIn,Conditions,Clouds,dailyrainin,SolarRadiationWatts/m^2,SoftwareType,DateUTC
2013-05-20 00:01:00,55.0,26.0,-100.00,ESE,102,4.0,5.0,33,0.00,,,0.00,0.000000,,2013-05-20 07:01:00,
2013-05-20 00:32:00,52.0,25.0,-100.00,East,100,3.0,5.0,35,0.00,,,0.00,0.000000,,2013-05-20 07:32:00,
2013-05-20 00:42:00,52.0,25.0,-100.00,East,100,3.0,5.0,35,0.00,,,0.00,0.000000,,2013-05-20 07:42:00,
2013-05-20 00:52:00,52.0,25.0,-100.00,East,100,3.0,5.0,35,0.00,,,0.00,0.000000,,2013-05-20 07:52:00,
2013-05-20 01:01:00,52.0,25.0,-100.00,East,100,3.0,5.0,35,0.00,,,0.00,0.000000,,2013-05-20 08:01:00,
2013-05-20 01:32:00,51.0,24.0,-100.00,East,84,2.0,5.0,35,0.00,,,0.00,0.000000,,2013-05-20 08:32:00,
2013-05-20 01:42:00,51.0,24.0,-100.00,East,84,2.0,5.0,35,0.00,,,0.00,0.000000,,2013-05-20 08:42:00,
2013-05-20 01:52:00,51.0,24.0,-100.00,East,84,2.0,5.0,35,0.00,,,0.00,0.000000,,2013-05-20 08:52:00,
2013-05-20 02:01:00,51.0,24.0,-100.00,East,84,2.0,5.0,35,0.00,,,0.00,0.000000,,2013-05-20 09:01:00,
2013-05-20 02:02:00,49.0,25.0,-100.00,East,92,3.0,4.0,39,0.00,,,0.00,0.000000,,2013-05-20 09:02:00,
2013-05-20 02:33:00,49.0,25.0,-100.00,East,92,3.0,4.0,39,0.00,,,0.00,0.000000,,2013-05-20 09:33:00,
2013-05-20 02:43:00,49.0,25.0,-100.00,East,92,3.0,4.0,39,0.00,,,0.00,0.000000,,2013-05-20 09:43:00,
2013-05-20 02:52:00,49.0,25.0,-100.00,East,92,3.0,4.0,39,0.00,,,0.00,0.000000,,2013-05-20 09:52:00,
2013-05-20 03:02:00,51.0,23.0,-100.00,East,86,2.0,5.0,33,0.00,,,0.00,0.000000,,2013-05-20 10:02:00,
2013-05-20 03:22:00,51.0,23.0,-100.00,East,86,2.0,5.0,33,0.00,,,0.00,0.000000,,2013-05-20 10:22:00,
2013-05-20 03:33:00,51.0,23.0,-100.00,East,86,2.0,5.0,33,0.00,,,0.00,0.000000,,2013-05-20 10:33:00,
2013-05-20 03:42:00,51.0,23.0,-100.00,East,86,2.0,5.0,33,0.00,,,0.00,0.000000,,2013-05-20 10:42:00,
2013-05-20 03:52:00,51.0,23.0,-100.00,East,86,2.0,5.0,33,0.00,,,0.00,0.000000,,2013-05-20 10:52:00,
2013-05-20 04:32:00,50.0,23.0,-100.00,ESE,106,3.0,5.0,35,0.00,,,0.00,0.000000,,2013-05-20 11:32:00,
2013-05-20 04:42:00,50.0,23.0,-100.00,ESE,106,3.0,5.0,35,0.00,,,0.00,0.000000,,2013-05-20 11:42:00,
2013-05-20 04:52:00,50.0,23.0,-100.00,ESE,106,3.0,5.0,35,0.00,,,0.00,0.000000,,2013-05-20 11:52:00,
2013-05-20 05:01:00,50.0,23.0,-100.00,ESE,106,3.0,5.0,35,0.00,,,0.00,0.000000,,2013-05-20 12:01:00,
2013-05-20 05:32:00,50.0,23.0,-100.00,East,99,4.0,5.0,35,0.00,,,0.00,0.000000,,2013-05-20 12:32:00,
2013-05-20 05:42:00,50.0,23.0,-100.00,East,99,4.0,5.0,35,0.00,,,0.00,0.000000,,2013-05-20 12:42:00,
2013-05-20 05:52:00,50.0,23.0,-100.00,East,99,4.0,5.0,35,0.00,,,0.00,0.000000,,2013-05-20 12:52:00,
2013-05-20 06:01:00,50.0,23.0,-100.00,East,99,4.0,5.0,35,0.00,,,0.00,0.000000,,2013-05-20 13:01:00,
2013-05-20 07:32:00,56.0,29.0,-100.00,East,87,2.0,6.0,36,-99.99,,,0.00,90.000000,,2013-05-20 14:32:00,
2013-05-20 07:42:00,56.0,29.0,-100.00,East,87,2.0,6.0,36,-99.99,,,0.00,90.000000,,2013-05-20 14:42:00,
2013-05-20 07:52:00,56.0,29.0,-100.00,East,87,2.0,6.0,36,-99.99,,,0.00,90.000000,,2013-05-20 14:52:00,
2013-05-20 08:01:00,56.0,29.0,-100.00,East,87,2.0,6.0,36,-99.99,,,0.00,90.000000,,2013-05-20 15:01:00,
2013-05-20 08:02:00,62.0,27.0,-100.00,NNW,348,8.0,12.0,26,0.00,,,0.00,318.000000,,2013-05-20 15:02:00,
2013-05-20 08:33:00,62.0,27.0,-100.00,NNW,348,8.0,12.0,26,0.00,,,0.00,318.000000,,2013-05-20 15:33:00,
2013-05-20 08:42:00,62.0,27.0,-100.00,NNW,348,8.0,12.0,26,0.00,,,0.00,318.000000,,2013-05-20 15:42:00,
2013-05-20 08:53:00,62.0,27.0,-100.00,NNW,348,8.0,12.0,26,0.00,,,0.00,318.000000,,2013-05-20 15:53:00,
2013-05-20 09:02:00,65.0,25.0,-100.00,NNW,332,10.0,16.0,22,0.00,,,0.00,566.000000,,2013-05-20 16:02:00,
2013-05-20 09:33:00,65.0,25.0,-100.00,NNW,332,10.0,16.0,22,0.00,,,0.00,566.000000,,2013-05-20 16:33:00,
2013-05-20 09:42:00,65.0,25.0,-100.00,NNW,332,10.0,16.0,22,0.00,,,0.00,566.000000,,2013-05-20 16:42:00,
2013-05-20 09:53:00,65.0,25.0,-100.00,NNW,332,10.0,16.0,22,0.00,,,0.00,566.000000,,2013-05-20 16:53:00,
2013-05-20 10:02:00,68.0,24.0,-100.00,NW,311,10.0,19.0,19,0.00,,,0.00,798.000000,,2013-05-20 17:02:00,
2013-05-20 10:33:00,68.0,24.0,-100.00,NW,311,10.0,19.0,19,0.00,,,0.00,798.000000,,2013-05-20 17:33:00,
2013-05-20 10:45:00,68.0,24.0,-100.00,NW,311,10.0,19.0,19,0.00,,,0.00,798.000000,,2013-05-20 17:45:00,
2013-05-20 10:53:00,68.0,24.0,-100.00,NW,311,10.0,19.0,19,0.00,,,0.00,798.000000,,2013-05-20 17:53:00,
2013-05-20 11:02:00,71.0,23.0,-100.00,NNW,329,9.0,20.0,16,0.00,,,-99.99,987.000000,,2013-05-20 18:02:00,
2013-05-20 11:33:00,71.0,23.0,-100.00,NNW,329,9.0,20.0,16,0.00,,,-99.99,987.000000,,2013-05-20 18:33:00,
2013-05-20 11:42:00,71.0,23.0,-100.00,NNW,329,9.0,20.0,16,0.00,,,-99.99,987.000000,,2013-05-20 18:42:00,
2013-05-20 11:55:00,71.0,23.0,-100.00,NNW,329,9.0,20.0,16,0.00,,,-99.99,987.000000,,2013-05-20 18:55:00,
2013-05-20 12:33:00,72.0,23.0,-100.00,NW,314,7.0,17.0,16,0.00,,,0.00,1117.000000,,2013-05-20 19:33:00,
2013-05-20 12:42:00,72.0,23.0,-100.00,NW,314,7.0,17.0,16,0.00,,,0.00,1117.000000,,2013-05-20 19:42:00,
2013-05-20 12:52:00,72.0,23.0,-100.00,NW,314,7.0,17.0,16,0.00,,,0.00,1117.000000,,2013-05-20 19:52:00,
2013-05-20 13:01:00,72.0,23.0,-100.00,NW,314,7.0,17.0,16,0.00,,,0.00,1117.000000,,2013-05-20 20:01:00,
2013-05-20 13:32:00,74.0,23.0,-100.00,NNW,337,8.0,16.0,15,0.00,,,0.00,1175.000000,,2013-05-20 20:32:00,
2013-05-20 13:42:00,74.0,23.0,-100.00,NNW,337,8.0,16.0,15,0.00,,,0.00,1175.000000,,2013-05-20 20:42:00,
2013-05-20 13:52:00,74.0,23.0,-100.00,NNW,337,8.0,16.0,15,0.00,,,0.00,1175.000000,,2013-05-20 20:52:00,
2013-05-20 14:01:00,74.0,23.0,-100.00,NNW,337,8.0,16.0,15,0.00,,,0.00,1175.000000,,2013-05-20 21:01:00,
2013-05-20 14:02:00,75.0,23.0,-100.00,NNW,343,7.0,15.0,14,0.00,,,0.00,1177.000000,,2013-05-20 21:02:00,
2013-05-20 14:33:00,75.0,23.0,-100.00,NNW,343,7.0,15.0,14,0.00,,,0.00,1177.000000,,2013-05-20 21:33:00,
2013-05-20 14:43:00,75.0,23.0,-100.00,NNW,343,7.0,15.0,14,0.00,,,0.00,1177.000000,,2013-05-20 21:43:00,
2013-05-20 14:53:00,75.0,23.0,-100.00,NNW,343,7.0,15.0,14,0.00,,,0.00,1177.000000,,2013-05-20 21:53:00,
2013-05-20 15:02:00,76.0,22.0,-100.00,WNW,298,8.0,16.0,13,0.00,,,0.00,1116.000000,,2013-05-20 22:02:00,
2013-05-20 15:33:00,76.0,22.0,-100.00,WNW,298,8.0,16.0,13,0.00,,,0.00,1116.000000,,2013-05-20 22:33:00,
2013-05-20 15:42:00,76.0,22.0,-100.00,WNW,298,8.0,16.0,13,0.00,,,0.00,1116.000000,,2013-05-20 22:42:00,
2013-05-20 15:52:00,76.0,22.0,-100.00,WNW,298,8.0,16.0,13,0.00,,,0.00,1116.000000,,2013-05-20 22:52:00,
2013-05-20 16:22:00,76.0,20.0,-100.00,NNW,329,8.0,16.0,12,0.00,,,0.00,984.000000,,2013-05-20 23:22:00,
2013-05-20 16:32:00,76.0,20.0,-100.00,NNW,329,8.0,16.0,12,0.00,,,0.00,984.000000,,2013-05-20 23:32:00,
2013-05-20 16:42:00,76.0,20.0,-100.00,NNW,329,8.0,16.0,12,0.00,,,0.00,984.000000,,2013-05-20 23:42:00,
2013-05-20 16:53:00,76.0,20.0,-100.00,NNW,329,8.0,16.0,12,0.00,,,0.00,984.000000,,2013-05-20 23:53:00,
2013-05-20 17:01:00,76.0,20.0,-100.00,NNW,329,8.0,16.0,12,0.00,,,0.00,984.000000,,2013-05-21 00:01:00,
2013-05-20 17:22:00,76.0,20.0,-100.00,NW,310,7.0,15.0,12,0.00,,,0.00,793.000000,,2013-05-21 00:22:00,
2013-05-20 17:32:00,76.0,20.0,-100.00,NW,310,7.0,15.0,12,0.00,,,0.00,793.000000,,2013-05-21 00:32:00,
2013-05-20 17:42:00,76.0,20.0,-100.00,NW,310,7.0,15.0,12,0.00,,,0.00,793.000000,,2013-05-21 00:42:00,
2013-05-20 17:52:00,76.0,20.0,-100.00,NW,310,7.0,15.0,12,0.00,,,0.00,793.000000,,2013-05-21 00:52:00,
2013-05-20 18:01:00,76.0,20.0,-100.00,NW,310,7.0,15.0,12,0.00,,,0.00,793.000000,,2013-05-21 01:01:00,
2013-05-20 18:22:00,76.0,18.0,-100.00,WNW,301,8.0,13.0,11,0.00,,,0.00,558.000000,,2013-05-21 01:22:00,
2013-05-20 18:32:00,76.0,18.0,-100.00,WNW,301,8.0,13.0,11,0.00,,,0.00,558.000000,,2013-05-21 01:32:00,
2013-05-20 18:42:00,76.0,18.0,-100.00,WNW,301,8.0,13.0,11,0.00,,,0.00,558.000000,,2013-05-21 01:42:00,
2013-05-20 18:52:00,76.0,18.0,-100.00,WNW,301,8.0,13.0,11,0.00,,,0.00,558.000000,,2013-05-21 01:52:00,
2013-05-20 19:01:00,76.0,18.0,-100.00,WNW,301,8.0,13.0,11,0.00,,,0.00,558.000000,,2013-05-21 02:01:00,
2013-05-20 19:02:00,73.0,17.0,-100.00,WNW,291,6.0,13.0,12,0.00,,,0.00,303.000000,,2013-05-21 02:02:00,
2013-05-20 19:32:00,73.0,17.0,-100.00,WNW,291,6.0,13.0,12,0.00,,,0.00,303.000000,,2013-05-21 02:32:00,
2013-05-20 19:42:00,73.0,17.0,-100.00,WNW,291,6.0,13.0,12,0.00,,,0.00,303.000000,,2013-05-21 02:42:00,
2013-05-20 19:52:00,73.0,17.0,-100.00,WNW,291,6.0,13.0,12,0.00,,,0.00,303.000000,,2013-05-21 02:52:00,
2013-05-20 20:02:00,64.0,20.0,-100.00,SE,144,1.0,10.0,18,0.00,,,0.00,53.000000,,2013-05-21 03:02:00,
2013-05-20 20:21:00,64.0,20.0,-100.00,SE,144,1.0,10.0,18,0.00,,,0.00,53.000000,,2013-05-21 03:21:00,
2013-05-20 20:33:00,64.0,20.0,-100.00,SE,144,1.0,10.0,18,0.00,,,0.00,53.000000,,2013-05-21 03:33:00,
2013-05-20 20:43:00,64.0,20.0,-100.00,SE,144,1.0,10.0,18,0.00,,,0.00,53.000000,,2013-05-21 03:43:00,
2013-05-20 20:53:00,64.0,20.0,-100.00,SE,144,1.0,10.0,18,0.00,,,0.00,53.000000,,2013-05-21 03:53:00,
2013-05-20 21:02:00,58.0,20.0,-100.00,SE,144,3.0,4.0,23,0.00,,,0.00,0.000000,,2013-05-21 04:02:00,
2013-05-20 21:23:00,58.0,20.0,-100.00,SE,144,3.0,4.0,23,0.00,,,0.00,0.000000,,2013-05-21 04:23:00,
2013-05-20 21:33:00,58.0,20.0,-100.00,SE,144,3.0,4.0,23,0.00,,,0.00,0.000000,,2013-05-21 04:33:00,
2013-05-20 21:42:00,58.0,20.0,-100.00,SE,144,3.0,4.0,23,0.00,,,0.00,0.000000,,2013-05-21 04:42:00,
2013-05-20 21:53:00,58.0,20.0,-100.00,SE,144,3.0,4.0,23,0.00,,,0.00,0.000000,,2013-05-21 04:53:00,
2013-05-20 22:22:00,58.0,19.0,-100.00,ESE,116,3.0,5.0,22,0.00,,,0.00,0.000000,,2013-05-21 05:22:00,
2013-05-20 22:32:00,58.0,19.0,-100.00,ESE,116,3.0,5.0,22,0.00,,,0.00,0.000000,,2013-05-21 05:32:00,
2013-05-20 22:42:00,58.0,19.0,-100.00,ESE,116,3.0,5.0,22,0.00,,,0.00,0.000000,,2013-05-21 05:42:00,
2013-05-20 22:52:00,58.0,19.0,-100.00,ESE,116,3.0,5.0,22,0.00,,,0.00,0.000000,,2013-05-21 05:52:00,
2013-05-20 23:01:00,58.0,19.0,-100.00,ESE,116,3.0,5.0,22,0.00,,,0.00,0.000000,,2013-05-21 06:01:00,
2013-05-20 23:21:00,57.0,20.0,-100.00,East,80,3.0,5.0,23,0.00,,,0.00,0.000000,,2013-05-21 06:21:00,
2013-05-20 23:32:00,57.0,20.0,-100.00,East,80,3.0,5.0,23,0.00,,,0.00,0.000000,,2013-05-21 06:32:00,
2013-05-20 23:42:00,57.0,20.0,-100.00,East,80,3.0,5.0,23,0.00,,,0.00,0.000000,,2013-05-21 06:42:00,
2013-05-20 23:52:00,57.0,20.0,-100.00,East,80,3.0,5.0,23,0.00,,,0.00,0.000000,,2013-05-21 06:52:00,